Weather at Ministro Pistarini International Airport

Public forecast

Using degrees Celsius for public forecast. Weather courtesy of forecast.io.

Current aviation weather report (METAR) for Ministro Pistarini International Airport

Retrieved 2020/11/28 13:00 UTC (24 minutes ago):

SAEZ 281300Z 03010KT CAVOK 27/18 Q1012 NOSIG

Aviation forecast (TAF) for Ministro Pistarini International Airport

Retrieved 2020/11/28 12:00 UTC (1 hour ago):

TAF SAEZ 281100Z 2812/2912 04010KT CAVOK TX30/2818Z TN18/2909Z BECMG 2815/2818 VRB05KT 8000 -SHRA SCT030 FEW050TCU TEMPO2819/2822 05010KT 5000 TSRA BKN040 FEW050CB BECMG 2900/2903 23005KT 6000 BKN020 PROB30 TEMPO 2907/2911 2000 MIFG BKN008